Flight Track Log - Related Links

Times and Time Zones

All times are in EDT time to prevent confusion due to time zone crossing. See the CJC3880 flight status page for this flight to view local times or setup timezone preferences in your user account.

Time Position Orientation Groundspeed Altitude Reporting Facility
EDT Latitude Longitude Course Direction KTS MPH feet Rate Location/Type
Mon 10:35:26 AM 41.0333 -73.7167 294° West 167 192 2,200  Level New York TRACON
Mon 10:36:26 AM 41.0500 -73.7667 270° West 170 196 3,600 1,450 Climbing New York TRACON
Mon 10:37:26 AM 41.0500 -73.8333 270° West 173 199 5,100 1,350 Climbing New York TRACON
Mon 10:38:26 AM 41.0500 -73.8833 252° West 173 199 6,300 1,150 Climbing New York TRACON
Mon 10:39:26 AM 41.0333 -73.9500 252° West 170 196 7,400 1,100 Climbing New York TRACON
Mon 10:40:26 AM 41.0167 -74.0167 246° West 173 199 8,500 1,000 Climbing New York TRACON
Mon 10:41:26 AM 41.0000 -74.0667 237° Southwest 175 201 9,400 750 Climbing New York TRACON
Mon 10:42:26 AM 40.9667 -74.1333 252° West 186 214 10,000 571 Climbing New York TRACON
Mon 10:43:32 AM 40.9500 -74.2000 245° Southwest 195 224 10,600 560 Climbing New York TRACON
Mon 10:45:28 AM 40.9061 -74.3239 249° West 202 232 11,700 576 Climbing New York Center
Mon 10:46:29 AM 40.8875 -74.3886 248° West 202 232 12,300 590 Climbing New York Center
Mon 10:47:30 AM 40.8667 -74.4561 249° West 202 232 12,900 610 Climbing New York Center
Mon 10:48:27 AM 40.8478 -74.5211 252° West 197 227 13,500 559 Climbing New York Center
Mon 10:49:28 AM 40.8311 -74.5886 250° West 197 227 14,000 248 Climbing New York Center
Mon 10:50:28 AM 40.8122 -74.6589 250° West 202 232 14,000  Level New York Center
Mon 10:51:30 AM 40.7908 -74.7344 250° West 216 249 14,000  Level New York Center
Mon 10:52:27 AM 40.7694 -74.8125 252° West 226 260 14,000  Level New York Center
Mon 10:53:27 AM 40.7478 -74.8989 250° West 233 268 14,000  Level New York Center
Mon 10:54:29 AM 40.7286 -74.9692 251° West 239 275 14,000  Level New York Center
Mon 10:55:29 AM 40.7069 -75.0525 247° West 239 275 14,000  Level New York Center
Mon 10:56:28 AM 40.6786 -75.1383 242° Southwest 240 276 14,000  Level New York Center
Mon 10:57:28 AM 40.6511 -75.2078 242° Southwest 230 265 14,000  Level New York Center
Mon 10:58:28 AM 40.6236 -75.2769 245° Southwest 230 265 14,000  Level New York Center
Mon 10:59:29 AM 40.5978 -75.3492 243° Southwest 230 265 14,000  Level New York Center
Mon 11:00:29 AM 40.5678 -75.4264 236° Southwest 230 265 14,000  Level New York Center
Mon 11:01:28 AM 40.5339 -75.4922 236° Southwest 230 265 14,000  Level New York Center
Mon 11:02:28 AM 40.5000 -75.5583 237° Southwest 219 252 14,000  Level New York Center
Mon 11:03:29 AM 40.4681 -75.6242 234° Southwest 219 252 14,000  Level New York Center
Mon 11:04:27 AM 40.4364 -75.6819 236° Southwest 219 252 14,000  Level New York Center
Mon 11:05:27 AM 40.4025 -75.7478 234° Southwest 219 252 14,000  Level New York Center
Mon 11:06:29 AM 40.3642 -75.8158 233° Southwest 219 252 14,000  Level New York Center
Mon 11:07:29 AM 40.3281 -75.8786 234° Southwest 219 252 14,000 51 Level New York Center
Mon 11:08:27 AM 40.2919 -75.9439 234° Southwest 219 252 14,100 50 Climbing New York Center
Mon 11:09:28 AM 40.2603 -76.0014 236° Southwest 219 252 14,100  Level New York Center
Mon 11:10:29 AM 40.2236 -76.0719 237° Southwest 219 252 14,100  Level New York Center
Mon 11:11:29 AM 40.1939 -76.1322 238° Southwest 219 252 14,100 -458 Level New York Center
Mon 11:12:27 AM 40.1569 -76.2081 239° Southwest 224 258 13,200 -966 Descending New York Center
Mon 11:13:27 AM 40.1269 -76.2736 240° Southwest 237 273 12,200 -595 Descending New York Center
Mon 11:14:28 AM 40.0942 -76.3472 243° Southwest 244 281 12,000 -64 Descending New York Center
Mon 11:16:34 AM 40.0333 -76.5000 237° Southwest 217 250 12,000  Level Potomac TRACON
Mon 11:17:34 AM 40.0000 -76.5667 237° Southwest 214 246 12,000  Level Potomac TRACON
Mon 11:18:34 AM 39.9667 -76.6333 237° Southwest 215 247 12,000 50 Level Potomac TRACON
Mon 11:19:34 AM 39.9333 -76.7000 252° West 216 249 12,100 50 Climbing Potomac TRACON
Mon 11:20:35 AM 39.9167 -76.7667 237° Southwest 214 246 12,100 -50 Level Potomac TRACON
Mon 11:21:35 AM 39.8833 -76.8333 237° Southwest 214 246 12,000 -200 Descending Potomac TRACON
Mon 11:22:35 AM 39.8500 -76.9000 237° Southwest 213 245 11,700 -600 Descending Potomac TRACON
Mon 11:23:35 AM 39.8167 -76.9667 237° Southwest 226 260 10,800 -893 Descending Potomac TRACON
Mon 11:24:36 AM 39.7833 -77.0333 237° Southwest 229 264 9,900 -893 Descending Potomac TRACON
Mon 11:25:36 AM 39.7500 -77.1000 237° Southwest 217 250 9,000 -900 Descending Potomac TRACON
Mon 11:26:36 AM 39.7167 -77.1667 237° Southwest 207 238 8,100 -500 Descending Potomac TRACON
Mon 11:27:36 AM 39.6833 -77.2333 247° West 202 232 8,000 -50 Descending Potomac TRACON
Mon 11:28:36 AM 39.6667 -77.2833 237° Southwest 189 217 8,000 -248 Level Potomac TRACON
Mon 11:29:37 AM 39.6333 -77.3500 201° Southwest 194 223 7,500 -793 Descending Potomac TRACON
Mon 11:30:37 AM 39.5667 -77.3833 194° South 210 242 6,400 -1,000 Descending Potomac TRACON
Mon 11:31:31 AM 39.5167 -77.4000 194° South 207 238 5,600 -939 Descending Potomac TRACON
Mon 11:32:32 AM 39.4667 -77.4167 194° South 198 228 4,600 -843 Descending Potomac TRACON
Mon 11:33:32 AM 39.4167 -77.4333 180° South 186 214 3,900 -300 Descending Potomac TRACON
Mon 11:34:32 AM 39.3667 -77.4333 180° South 182 209 4,000 -200 Climbing Potomac TRACON
Mon 11:35:32 AM 39.3167 -77.4333 180° South 190 219 3,500 -446 Descending Potomac TRACON
Mon 11:36:33 AM 39.2667 -77.4333 180° South 189 217 3,100 -198 Descending Potomac TRACON
Mon 11:37:33 AM 39.2167 -77.4333 180° South 175 201 3,100  Level Potomac TRACON
Mon 11:38:33 AM 39.1667 -77.4333 180° South 178 205 3,100 -50 Level Potomac TRACON
Mon 11:39:33 AM 39.1167 -77.4333 180° South 181 208 3,000 -250 Descending Potomac TRACON
Mon 11:40:33 AM 39.0667 -77.4333 180° South 148 170 2,600 -595 Descending Potomac TRACON
Mon 11:41:34 AM 39.0333 -77.4333 180° South 139 160 1,800 -793 Descending Potomac TRACON
Mon 11:42:34 AM 38.9833 -77.4333 180° South 138 159 1,000 -800 Descending Potomac TRACON

Login

Don't have an account? Register now (free) for customized features, flight alerts, and more!